createdAt,value
2023-04-18T00:02:17.562Z,91.35
2023-04-18T00:04:47.260Z,91.50
2023-04-18T00:07:18.843Z,92.07
2023-04-18T00:09:47.267Z,91.89
2023-04-18T00:12:15.827Z,90.87
2023-04-18T00:14:44.312Z,91.03
2023-04-18T00:17:13.429Z,91.57
2023-04-18T00:19:43.356Z,91.48
2023-04-18T00:22:13.197Z,90.23
2023-04-18T00:24:43.235Z,90.18
2023-04-18T00:27:11.661Z,91.12
2023-04-18T00:29:40.879Z,90.23
2023-04-18T00:32:09.365Z,90.36
2023-04-18T00:34:37.961Z,90.18
2023-04-18T00:37:06.497Z,91.06
2023-04-18T00:39:36.775Z,91.39
2023-04-18T00:42:07.170Z,92.37
2023-04-18T00:44:35.896Z,91.37
2023-04-18T00:47:04.387Z,92.56
2023-04-18T00:49:32.987Z,91.83
2023-04-18T00:52:01.723Z,91.88
2023-04-18T00:54:31.148Z,93.10
2023-04-18T00:56:59.941Z,92.85
2023-04-18T00:59:29.835Z,91.99
2023-04-18T01:01:58.740Z,92.29
2023-04-18T01:04:27.500Z,91.51
2023-04-18T01:06:56.806Z,91.36
2023-04-18T01:09:25.832Z,91.63
2023-04-18T01:11:54.304Z,91.21
2023-04-18T01:14:22.841Z,91.79
2023-04-18T01:16:53.190Z,90.79
2023-04-18T01:19:21.629Z,90.76
2023-04-18T01:21:50.388Z,91.03
2023-04-18T01:24:20.513Z,90.29
2023-04-18T01:26:48.996Z,90.16
2023-04-18T01:29:17.730Z,90.29
2023-04-18T01:31:46.371Z,91.12
2023-04-18T01:34:15.657Z,90.86
2023-04-18T01:36:44.476Z,91.03
2023-04-18T01:39:13.393Z,90.54
2023-04-18T01:41:43.730Z,90.02
2023-04-18T01:44:12.542Z,90.15
2023-04-18T01:46:41.468Z,91.13
2023-04-18T01:49:10.340Z,90.40
2023-04-18T01:51:39.979Z,90.69
2023-04-18T01:54:08.430Z,91.37
2023-04-18T01:56:36.945Z,90.56
2023-04-18T01:59:07.005Z,91.23
2023-04-18T02:01:35.514Z,91.30
2023-04-18T02:04:04.295Z,91.03
2023-04-18T02:06:33.011Z,91.53
2023-04-18T02:09:01.581Z,92.11
2023-04-18T02:11:30.016Z,91.37
2023-04-18T02:13:59.728Z,91.60
2023-04-18T02:16:29.662Z,91.12
2023-04-18T02:18:58.168Z,91.17
2023-04-18T02:21:26.637Z,91.23
2023-04-18T02:23:55.128Z,92.46
2023-04-18T02:26:23.974Z,91.62
2023-04-18T02:28:52.469Z,91.18
2023-04-18T02:31:21.192Z,91.44
2023-04-18T02:33:51.273Z,91.81
2023-04-18T02:36:22.634Z,92.09
2023-04-18T02:38:51.305Z,92.29
2023-04-18T02:41:19.791Z,92.20
2023-04-18T02:43:48.479Z,91.12
2023-04-18T02:46:17.560Z,91.80
2023-04-18T02:48:46.295Z,92.93
2023-04-18T02:51:16.235Z,92.28
2023-04-18T02:53:44.683Z,92.46
2023-04-18T02:56:14.775Z,92.60
2023-04-18T02:58:43.222Z,92.68
2023-04-18T03:01:11.727Z,92.84
2023-04-18T03:03:40.224Z,93.11
2023-04-18T03:06:09.054Z,91.64
2023-04-18T03:08:38.990Z,92.60
2023-04-18T03:11:07.504Z,91.73
2023-04-18T03:13:36.420Z,91.21
2023-04-18T03:16:05.552Z,91.22
2023-04-18T03:18:34.070Z,91.60
2023-04-18T03:21:02.602Z,92.50
2023-04-18T03:23:31.060Z,91.70
2023-04-18T03:26:01.059Z,91.22
2023-04-18T03:28:29.744Z,92.40
2023-04-18T03:30:58.226Z,91.44
2023-04-18T03:33:26.764Z,91.06
2023-04-18T03:35:55.236Z,90.89
2023-04-18T03:38:24.147Z,91.89
2023-04-18T03:40:52.713Z,90.89
2023-04-18T03:43:22.615Z,91.56
2023-04-18T03:45:51.233Z,92.03
2023-04-18T03:48:19.728Z,91.21
2023-04-18T03:50:48.430Z,91.61
2023-04-18T03:53:16.939Z,92.17
2023-04-18T03:55:45.581Z,91.98
2023-04-18T03:58:14.183Z,92.18
2023-04-18T04:00:44.106Z,91.68
2023-04-18T04:03:12.812Z,92.52
2023-04-18T04:05:41.437Z,91.23
2023-04-18T04:08:09.936Z,91.77
2023-04-18T04:10:38.495Z,91.46
2023-04-18T04:13:07.040Z,91.86
2023-04-18T04:15:35.545Z,92.50
2023-04-18T04:18:05.725Z,91.41
2023-04-18T04:20:34.379Z,90.87
2023-04-18T04:23:03.142Z,91.22
2023-04-18T04:25:33.321Z,90.99
2023-04-18T04:28:02.834Z,91.37
2023-04-18T04:30:31.843Z,91.40
2023-04-18T04:33:02.008Z,91.06
2023-04-18T04:35:32.217Z,90.46
2023-04-18T04:38:01.904Z,90.77
2023-04-18T04:40:30.522Z,91.52
2023-04-18T04:42:59.025Z,91.96
2023-04-18T04:45:27.530Z,90.65
2023-04-18T04:47:56.034Z,92.09
2023-04-18T04:50:24.713Z,92.90
2023-04-18T04:52:54.736Z,92.48
2023-04-18T04:55:23.198Z,91.53
2023-04-18T04:57:51.669Z,92.20
2023-04-18T05:00:21.875Z,92.20
2023-04-18T05:02:50.526Z,92.70
2023-04-18T05:05:19.087Z,93.37
2023-04-18T05:07:47.563Z,93.01
2023-04-18T05:10:17.516Z,92.58
2023-04-18T05:12:46.004Z,92.90
2023-04-18T05:15:16.888Z,92.86
2023-04-18T05:17:45.488Z,92.61
2023-04-18T05:20:14.406Z,92.13
2023-04-18T05:22:43.080Z,91.33
2023-04-18T05:25:12.391Z,92.43
2023-04-18T05:27:42.816Z,93.35
2023-04-18T05:30:12.687Z,92.15
2023-04-18T05:32:41.261Z,93.15
2023-04-18T05:35:10.760Z,92.01
2023-04-18T05:37:39.244Z,92.36
2023-04-18T05:40:10.330Z,92.74
2023-04-18T05:42:38.869Z,93.15
2023-04-18T05:45:10.515Z,92.46
2023-04-18T05:47:39.006Z,92.65
2023-04-18T05:50:10.437Z,93.15
2023-04-18T05:52:39.400Z,92.49
2023-04-18T05:55:08.608Z,92.91
2023-04-18T05:57:37.354Z,91.73
2023-04-18T06:00:11.510Z,92.33
2023-04-18T06:02:40.360Z,92.50
2023-04-18T06:05:10.324Z,92.57
2023-04-18T06:07:38.982Z,93.15
2023-04-18T06:10:13.331Z,91.85
2023-04-18T06:12:43.487Z,92.80
2023-04-18T06:15:13.731Z,93.47
2023-04-18T06:17:42.398Z,93.54
2023-04-18T06:20:12.527Z,92.38
2023-04-18T06:22:41.016Z,92.61
2023-04-18T06:25:10.775Z,93.22
2023-04-18T06:27:39.342Z,93.18
2023-04-18T06:30:10.662Z,92.57
2023-04-18T06:32:40.598Z,93.05
2023-04-18T06:35:09.788Z,92.43
2023-04-18T06:37:38.261Z,93.94
2023-04-18T06:40:08.405Z,93.21
2023-04-18T06:42:36.874Z,93.16
2023-04-18T06:45:06.759Z,92.81
2023-04-18T06:47:35.347Z,93.94
2023-04-18T06:50:06.176Z,92.58
2023-04-18T06:52:35.566Z,92.44
2023-04-18T06:55:04.116Z,92.43
2023-04-18T06:57:32.897Z,92.78
2023-04-18T07:00:01.369Z,93.55
2023-04-18T07:02:29.904Z,93.03
2023-04-18T07:04:58.592Z,93.42
2023-04-18T07:07:29.088Z,92.22
2023-04-18T07:09:57.541Z,93.96
2023-04-18T07:12:27.811Z,94.54
2023-04-18T07:14:56.620Z,93.20
2023-04-18T07:17:25.273Z,93.62
2023-04-18T07:19:53.777Z,93.11
2023-04-18T07:22:22.306Z,93.45
2023-04-18T07:24:52.162Z,92.62
2023-04-18T07:27:20.648Z,92.89
2023-04-18T07:29:49.644Z,93.32
2023-04-18T07:32:18.324Z,93.19
2023-04-18T07:34:47.037Z,92.58
2023-04-18T07:37:18.058Z,93.01
2023-04-18T07:39:46.515Z,93.27
2023-04-18T07:42:17.904Z,92.93
2023-04-18T07:44:47.039Z,92.37
2023-04-18T07:47:15.602Z,92.30
2023-04-18T07:49:46.292Z,93.46
2023-04-18T07:52:15.102Z,93.05
2023-04-18T07:54:43.591Z,94.03
2023-04-18T07:57:12.064Z,93.83
2023-04-18T07:59:42.119Z,93.45
2023-04-18T08:02:10.669Z,93.49
2023-04-18T08:04:39.472Z,93.12
2023-04-18T08:07:09.347Z,92.67
2023-04-18T08:09:37.845Z,91.83
2023-04-18T08:12:06.941Z,92.92
2023-04-18T08:14:35.453Z,92.61
2023-04-18T08:17:05.314Z,93.37
2023-04-18T08:19:33.771Z,92.33
2023-04-18T08:22:10.935Z,91.93
2023-04-18T08:24:41.682Z,92.52
2023-04-18T08:27:14.966Z,91.99
2023-04-18T08:29:44.738Z,92.63
2023-04-18T08:32:14.808Z,92.63
2023-04-18T08:34:43.801Z,92.60
2023-04-18T08:37:12.245Z,92.07
2023-04-18T08:39:40.794Z,92.36
2023-04-18T08:42:11.793Z,92.10
2023-04-18T08:44:40.291Z,92.67
2023-04-18T08:47:10.837Z,91.19
2023-04-18T08:52:31.805Z,92.80
2023-04-18T08:55:02.734Z,91.92
2023-04-18T08:57:31.380Z,92.03
2023-04-18T09:00:01.514Z,92.93
2023-04-18T09:02:42.634Z,92.40
2023-04-18T09:05:20.064Z,92.47
2023-04-18T09:07:49.647Z,92.81
2023-04-18T09:10:29.566Z,92.59
2023-04-18T09:12:59.677Z,92.00
2023-04-18T09:15:29.798Z,93.17
2023-04-18T09:17:59.834Z,92.59
2023-04-18T09:20:38.061Z,93.48
2023-04-18T09:23:11.116Z,92.53
2023-04-18T09:25:46.796Z,92.43
2023-04-18T09:28:28.184Z,93.34
2023-04-18T09:30:58.706Z,92.99
2023-04-18T09:33:29.354Z,92.50
2023-04-18T09:36:20.018Z,92.55
2023-04-18T09:38:49.063Z,93.21
2023-04-18T09:41:20.834Z,93.04
2023-04-18T09:43:50.284Z,94.04
2023-04-18T09:46:18.850Z,94.16
2023-04-18T09:48:47.594Z,92.56
2023-04-18T09:51:19.114Z,92.72
2023-04-18T09:53:48.038Z,93.65
2023-04-18T09:56:24.345Z,93.73
2023-04-18T09:58:58.571Z,93.89
2023-04-18T10:01:30.179Z,94.13
2023-04-18T10:04:02.055Z,93.54
2023-04-18T10:06:35.218Z,92.30
2023-04-18T10:09:06.084Z,92.50
2023-04-18T10:11:34.934Z,91.29
2023-04-18T10:14:08.282Z,93.34
2023-04-18T10:16:37.487Z,92.84
2023-04-18T10:19:21.830Z,91.90
2023-04-18T10:21:56.576Z,92.83
2023-04-18T10:24:56.374Z,92.63
2023-04-18T10:28:01.336Z,91.16
2023-04-18T10:30:57.049Z,91.31
2023-04-18T10:33:32.243Z,90.31
2023-04-18T10:36:14.422Z,90.43
2023-04-18T10:38:49.762Z,91.53
2023-04-18T10:41:27.159Z,89.89
2023-04-18T10:44:22.843Z,90.91
2023-04-18T10:47:31.545Z,91.57
2023-04-18T10:50:06.094Z,91.47
2023-04-18T10:52:35.219Z,91.73
2023-04-18T10:55:25.161Z,91.14
2023-04-18T10:57:56.193Z,89.29
2023-04-18T11:00:25.093Z,90.05
2023-04-18T11:02:56.678Z,90.27
2023-04-18T11:05:27.908Z,89.30
2023-04-18T11:07:56.917Z,89.34
2023-04-18T11:10:28.357Z,90.13
2023-04-18T11:12:59.540Z,88.90
2023-04-18T11:15:30.370Z,90.17
2023-04-18T11:18:02.380Z,90.56
2023-04-18T11:20:39.027Z,90.32
2023-04-18T11:23:19.921Z,89.54
2023-04-18T11:25:52.045Z,89.55
2023-04-18T11:28:22.362Z,89.53
2023-04-18T11:30:50.996Z,88.87
2023-04-18T11:33:20.373Z,89.45
2023-04-18T11:35:49.293Z,89.66
2023-04-18T11:38:18.637Z,89.31
2023-04-18T11:40:51.680Z,89.86
2023-04-18T11:43:23.768Z,88.67
2023-04-18T11:45:54.700Z,89.74
2023-04-18T11:48:23.690Z,89.49
2023-04-18T11:50:52.534Z,89.31
2023-04-18T11:53:34.619Z,88.61
2023-04-18T11:56:05.827Z,88.71
2023-04-18T11:58:36.423Z,88.54
2023-04-18T12:01:19.545Z,88.88
2023-04-18T12:04:02.655Z,87.92
2023-04-18T12:06:49.335Z,87.55
2023-04-18T12:09:18.293Z,86.75
2023-04-18T12:11:59.569Z,88.19
2023-04-18T12:14:29.254Z,87.79
2023-04-18T12:16:57.827Z,87.88
2023-04-18T12:19:28.753Z,87.66
2023-04-18T12:22:00.426Z,86.91
2023-04-18T12:24:30.034Z,87.33
2023-04-18T12:27:00.398Z,87.33
2023-04-18T12:29:30.428Z,86.70
2023-04-18T12:31:59.037Z,87.32
2023-04-18T12:34:27.655Z,87.94
2023-04-18T12:36:56.473Z,88.62
2023-04-18T12:39:26.046Z,87.44
2023-04-18T12:41:54.494Z,88.88
2023-04-18T12:44:24.714Z,87.83
2023-04-18T12:46:53.508Z,86.38
2023-04-18T12:49:22.067Z,87.78
2023-04-18T12:51:50.552Z,86.88
2023-04-18T12:54:19.054Z,85.79
2023-04-18T12:56:47.549Z,86.66
2023-04-18T12:59:16.286Z,86.25
2023-04-18T13:01:46.305Z,84.32
2023-04-18T13:04:15.427Z,88.09
2023-04-18T13:06:44.037Z,86.08
2023-04-18T13:09:12.689Z,86.66
2023-04-18T13:11:41.302Z,84.40
2023-04-18T13:14:09.793Z,83.58
2023-04-18T13:16:38.345Z,84.48
2023-04-18T13:19:08.248Z,83.91
2023-04-18T13:21:36.977Z,85.41
2023-04-18T13:24:06.182Z,83.93
2023-04-18T13:26:36.110Z,84.92
2023-04-18T13:29:05.805Z,82.82
2023-04-18T13:31:34.374Z,82.63
2023-04-18T13:34:02.922Z,81.21
2023-04-18T13:36:34.851Z,81.85
2023-04-18T13:39:05.933Z,81.77
2023-04-18T13:41:35.402Z,82.10
2023-04-18T13:44:03.906Z,80.87
2023-04-18T13:46:32.505Z,79.13
2023-04-18T13:49:01.082Z,79.67
2023-04-18T13:51:29.594Z,80.97
2023-04-18T13:54:01.201Z,81.06
2023-04-18T13:56:29.934Z,80.77
2023-04-18T13:58:58.417Z,80.12
2023-04-18T14:01:27.723Z,79.73
2023-04-18T14:03:56.422Z,78.90
2023-04-18T14:06:25.261Z,78.24
2023-04-18T14:08:53.710Z,80.38
2023-04-18T14:11:25.049Z,77.68
2023-04-18T14:13:53.754Z,79.89
2023-04-18T14:16:22.276Z,81.03
2023-04-18T14:18:50.784Z,80.34
2023-04-18T14:21:19.267Z,80.52
2023-04-18T14:23:47.728Z,77.60
2023-04-18T14:26:16.580Z,78.21
2023-04-18T14:28:47.104Z,79.04
2023-04-18T14:31:16.683Z,80.15
2023-04-18T14:33:45.288Z,77.52
2023-04-18T14:36:15.273Z,76.43
2023-04-18T14:38:43.913Z,79.40
2023-04-18T14:41:12.702Z,77.64
2023-04-18T14:43:41.204Z,77.21
2023-04-18T14:46:14.480Z,79.64
2023-04-18T14:48:43.086Z,76.66
2023-04-18T14:51:11.596Z,76.50
2023-04-18T14:53:41.067Z,76.65
2023-04-18T14:56:09.741Z,77.25
2023-04-18T14:58:38.280Z,77.19
2023-04-18T15:01:07.375Z,75.79
2023-04-18T15:03:37.477Z,76.54
2023-04-18T15:06:06.936Z,78.15
2023-04-18T15:08:35.463Z,78.86
2023-04-18T15:11:08.386Z,76.68
2023-04-18T15:13:37.129Z,76.28
2023-04-18T15:16:06.568Z,77.42
2023-04-18T15:18:36.507Z,76.29
2023-04-18T15:21:05.486Z,76.69
2023-04-18T15:23:34.489Z,74.41
2023-04-18T15:26:03.051Z,76.24
2023-04-18T15:28:32.749Z,75.34
2023-04-18T15:31:01.532Z,76.42
2023-04-18T15:33:30.056Z,77.07
2023-04-18T15:36:00.166Z,77.05
2023-04-18T15:38:29.383Z,77.28
2023-04-18T15:40:58.555Z,76.65
2023-04-18T15:43:27.288Z,78.45
2023-04-18T15:45:55.748Z,75.05
2023-04-18T15:48:24.476Z,74.72
2023-04-18T15:50:53.304Z,74.95
2023-04-18T15:53:23.172Z,75.03
2023-04-18T15:55:53.670Z,75.73
2023-04-18T15:58:24.002Z,77.08
2023-04-18T16:00:52.575Z,75.65
2023-04-18T16:03:21.478Z,73.01
2023-04-18T16:05:50.823Z,73.32
2023-04-18T16:08:19.430Z,75.97
2023-04-18T16:10:49.343Z,73.38
2023-04-18T16:13:17.823Z,73.59
2023-04-18T16:15:46.326Z,72.85
2023-04-18T16:18:15.085Z,73.88
2023-04-18T16:20:43.625Z,71.59
2023-04-18T16:23:12.144Z,74.01
2023-04-18T16:25:40.617Z,73.06
2023-04-18T16:28:10.516Z,74.45
2023-04-18T16:30:39.521Z,77.15
2023-04-18T16:33:08.312Z,75.38
2023-04-18T16:35:37.169Z,75.49
2023-04-18T16:38:05.638Z,76.64
2023-04-18T16:40:35.118Z,74.07
2023-04-18T16:43:03.625Z,76.87
2023-04-18T16:45:34.188Z,74.52
2023-04-18T16:48:02.709Z,76.02
2023-04-18T16:50:31.349Z,75.80
2023-04-18T16:53:00.108Z,76.57
2023-04-18T16:55:28.866Z,77.17
2023-04-18T16:57:57.315Z,76.93
2023-04-18T17:00:25.957Z,77.05
2023-04-18T17:02:56.241Z,77.49
2023-04-18T17:05:25.972Z,78.22
2023-04-18T17:07:56.049Z,76.94
2023-04-18T17:10:24.818Z,78.07
2023-04-18T17:12:53.492Z,78.46
2023-04-18T17:15:23.638Z,78.20
2023-04-18T17:17:52.151Z,79.33
2023-04-18T17:20:22.554Z,80.18
2023-04-18T17:22:51.183Z,79.76
2023-04-18T17:25:19.806Z,79.84
2023-04-18T17:27:48.306Z,81.42
2023-04-18T17:30:17.082Z,79.82
2023-04-18T17:32:46.964Z,80.36
2023-04-18T17:35:15.819Z,80.60
2023-04-18T17:37:45.938Z,80.70
2023-04-18T17:40:15.327Z,81.00
2023-04-18T17:42:43.853Z,81.79
2023-04-18T17:45:12.380Z,79.22
2023-04-18T17:47:41.296Z,78.71
2023-04-18T17:50:10.905Z,79.81
2023-04-18T17:52:39.669Z,81.46
2023-04-18T17:55:10.739Z,81.17
2023-04-18T17:57:39.225Z,81.13
2023-04-18T18:00:11.843Z,84.10
2023-04-18T18:02:41.741Z,84.01
2023-04-18T18:05:14.476Z,80.00
2023-04-18T18:07:47.479Z,80.76
2023-04-18T18:10:20.375Z,79.99
2023-04-18T18:12:49.294Z,82.68
2023-04-18T18:15:18.030Z,82.63
2023-04-18T18:17:46.578Z,85.34
2023-04-18T18:20:15.909Z,85.35
2023-04-18T18:22:44.803Z,87.49
2023-04-18T18:25:13.282Z,87.20
2023-04-18T18:27:43.194Z,86.68
2023-04-18T18:30:12.203Z,87.65
2023-04-18T18:32:40.863Z,87.79
2023-04-18T18:35:10.590Z,87.63
2023-04-18T18:37:39.325Z,88.07
2023-04-18T18:40:09.912Z,88.72
2023-04-18T18:42:39.290Z,88.28
2023-04-18T18:45:11.068Z,86.90
2023-04-18T18:47:40.338Z,87.84
2023-04-18T18:50:10.144Z,88.17
2023-04-18T18:52:40.986Z,87.45
2023-04-18T18:55:10.887Z,87.33
2023-04-18T18:57:39.477Z,88.88
2023-04-18T19:00:12.196Z,88.90
2023-04-18T19:02:41.127Z,88.81
2023-04-18T19:05:12.595Z,88.65
2023-04-18T19:07:43.553Z,87.57
2023-04-18T19:10:12.745Z,88.67
2023-04-18T19:12:41.210Z,88.73
2023-04-18T19:15:13.267Z,88.94
2023-04-18T19:17:44.215Z,89.09
2023-04-18T19:20:13.246Z,89.74
2023-04-18T19:22:41.769Z,89.90
2023-04-18T19:25:11.390Z,88.89
2023-04-18T19:27:42.244Z,89.25
2023-04-18T19:30:13.636Z,88.29
2023-04-18T19:32:42.408Z,89.42
2023-04-18T19:35:13.286Z,89.86
2023-04-18T19:37:42.018Z,88.69
2023-04-18T19:40:11.994Z,88.67
2023-04-18T19:42:41.140Z,90.48
2023-04-18T19:45:15.080Z,89.24
2023-04-18T19:47:44.550Z,89.35
2023-04-18T19:50:13.385Z,91.09
2023-04-18T19:52:41.994Z,89.55
2023-04-18T19:55:11.613Z,90.35
2023-04-18T19:57:41.608Z,90.17
2023-04-18T20:00:14.106Z,89.87
2023-04-18T20:02:43.477Z,89.03
2023-04-18T20:05:12.955Z,91.09
2023-04-18T20:07:41.887Z,89.36
2023-04-18T20:10:11.695Z,92.09
2023-04-18T20:12:40.288Z,91.07
2023-04-18T20:15:10.518Z,92.38
2023-04-18T20:17:40.407Z,91.46
2023-04-18T20:20:11.350Z,92.90
2023-04-18T20:22:40.454Z,91.54
2023-04-18T20:25:09.684Z,92.65
2023-04-18T20:27:38.147Z,91.47
2023-04-18T20:30:08.591Z,93.55
2023-04-18T20:32:37.126Z,91.43
2023-04-18T20:35:08.553Z,93.88
2023-04-18T20:37:41.448Z,92.46
2023-04-18T20:40:11.393Z,92.01
2023-04-18T20:42:39.939Z,93.41
2023-04-18T20:45:11.731Z,92.82
2023-04-18T20:47:41.552Z,91.97
2023-04-18T20:50:14.093Z,94.01
2023-04-18T20:52:43.116Z,93.02
2023-04-18T20:55:16.771Z,94.96
2023-04-18T20:57:45.648Z,93.48
2023-04-18T21:00:18.504Z,95.33
2023-04-18T21:02:47.339Z,92.14
2023-04-18T21:05:17.343Z,93.06
2023-04-18T21:07:46.180Z,94.60
2023-04-18T21:10:14.648Z,95.73
2023-04-18T21:12:43.844Z,93.46
2023-04-18T21:15:13.642Z,94.47
2023-04-18T21:17:42.353Z,92.34
2023-04-18T21:20:11.753Z,93.62
2023-04-18T21:22:42.622Z,93.88
2023-04-18T21:25:12.185Z,93.19
2023-04-18T21:27:40.669Z,93.40
2023-04-18T21:30:10.350Z,93.17
2023-04-18T21:32:38.887Z,94.06
2023-04-18T21:35:08.263Z,93.28
2023-04-18T21:37:36.731Z,93.07
2023-04-18T21:40:08.866Z,93.30
2023-04-18T21:42:37.956Z,93.17
2023-04-18T21:45:08.549Z,92.44
2023-04-18T21:47:37.080Z,93.11
2023-04-18T21:50:06.750Z,93.88
2023-04-18T21:52:35.544Z,94.00
2023-04-18T21:55:05.055Z,93.24
2023-04-18T21:57:34.923Z,94.59
2023-04-18T22:00:03.425Z,92.88
2023-04-18T22:02:32.276Z,93.28
2023-04-18T22:05:01.589Z,94.37
2023-04-18T22:07:31.151Z,94.67
2023-04-18T22:09:59.901Z,94.37
2023-04-18T22:12:28.418Z,93.72
2023-04-18T22:14:58.388Z,93.45
2023-04-18T22:17:27.208Z,94.84
2023-04-18T22:19:56.453Z,94.20
2023-04-18T22:22:24.997Z,93.56
2023-04-18T22:24:53.452Z,91.81
2023-04-18T22:27:21.939Z,93.96
2023-04-18T22:29:50.373Z,94.66
2023-04-18T22:32:20.280Z,93.62
2023-04-18T22:34:48.778Z,93.56
2023-04-18T22:37:17.450Z,91.81
2023-04-18T22:39:46.056Z,92.97
2023-04-18T22:42:14.582Z,91.57
2023-04-18T22:44:43.058Z,92.70
2023-04-18T22:47:11.579Z,90.61
2023-04-18T22:49:42.091Z,92.11
2023-04-18T22:52:10.734Z,92.58
2023-04-18T22:54:40.951Z,91.64
2023-04-18T22:57:09.856Z,91.91
2023-04-18T22:59:38.397Z,90.65
2023-04-18T23:02:06.987Z,91.59
2023-04-18T23:04:36.159Z,92.89
2023-04-18T23:07:06.123Z,91.65
2023-04-18T23:09:34.914Z,91.78
2023-04-18T23:12:03.553Z,93.16
2023-04-18T23:14:32.032Z,92.91
2023-04-18T23:17:00.694Z,93.23
2023-04-18T23:19:29.108Z,93.02
2023-04-18T23:21:57.554Z,92.35
2023-04-18T23:24:27.709Z,91.17
2023-04-18T23:26:57.077Z,90.96
2023-04-18T23:29:25.562Z,89.85
2023-04-18T23:31:54.120Z,93.41
2023-04-18T23:34:22.995Z,92.73
2023-04-18T23:36:51.409Z,91.87
2023-04-18T23:39:19.888Z,94.06
2023-04-18T23:41:49.790Z,92.63
2023-04-18T23:44:18.236Z,92.58
2023-04-18T23:46:46.715Z,93.38
2023-04-18T23:49:15.230Z,91.49
2023-04-18T23:51:44.260Z,93.02
2023-04-18T23:54:13.493Z,90.79
2023-04-18T23:56:42.048Z,92.82
2023-04-18T23:59:11.872Z,93.28
